Frederick, Oklahoma
Current Conditions -  °F | °C
As of 8:53 PM on Sunday 23 Nov 2014 (Local Time) from KFDR Reporting Station
Overcast Overcast  
Wind Chill: 44°   Ceiling: 10000
Heat Index: 48°   Visibility: 10mi
Dew Point: 37°   Wind: 9mph
Humidity: 66%   Direction: 290°WNW
Pressure: 29.77"   Gusts: NA
Location:  34.39°N, 99.02°W
Report Text: KFDR 240253Z AUTO 29008KT 10SM OVC100 09/03 A2977 RMK AO2 SLP078 60000 T00890028 51033
Loading
Personal Weather Stations






























Interactive Weather Map New forecast layout! Learn more

10-Day Weather Forecast

Advertisements
Track Severe Weather on mobile